sensor_id;sensor_type;location;lat;lon;timestamp;pressure;altitude;pressure_sealevel;temperature;humidity
50349;BME280;36250;48.740;22.174;2023-08-08T00:02:18;100203.72;;;17.97;74.06
50349;BME280;36250;48.740;22.174;2023-08-08T00:04:43;100208.31;;;18.01;74.13
50349;BME280;36250;48.740;22.174;2023-08-08T00:07:08;100212.09;;;18.05;74.08
50349;BME280;36250;48.740;22.174;2023-08-08T00:09:34;100215.69;;;18.06;74.03
50349;BME280;36250;48.740;22.174;2023-08-08T00:11:59;100218.50;;;18.01;74.18
50349;BME280;36250;48.740;22.174;2023-08-08T00:14:24;100222.59;;;18.03;74.36
50349;BME280;36250;48.740;22.174;2023-08-08T00:16:50;100216.00;;;18.04;74.43
50349;BME280;36250;48.740;22.174;2023-08-08T00:19:15;100221.69;;;18.08;74.30
50349;BME280;36250;48.740;22.174;2023-08-08T00:21:40;100222.09;;;18.01;74.61
50349;BME280;36250;48.740;22.174;2023-08-08T00:24:05;100218.00;;;17.99;74.82
50349;BME280;36250;48.740;22.174;2023-08-08T00:26:31;100218.50;;;18.01;74.89
50349;BME280;36250;48.740;22.174;2023-08-08T00:28:56;100225.88;;;18.05;74.86
50349;BME280;36250;48.740;22.174;2023-08-08T00:31:21;100227.53;;;18.06;74.56
50349;BME280;36250;48.740;22.174;2023-08-08T00:33:46;100230.03;;;18.03;74.46
50349;BME280;36250;48.740;22.174;2023-08-08T00:36:11;100227.88;;;18.00;74.88
50349;BME280;36250;48.740;22.174;2023-08-08T00:38:37;100231.19;;;18.02;74.78
50349;BME280;36250;48.740;22.174;2023-08-08T00:41:02;100235.03;;;18.01;74.66
50349;BME280;36250;48.740;22.174;2023-08-08T00:43:29;100235.94;;;17.96;74.86
50349;BME280;36250;48.740;22.174;2023-08-08T00:45:54;100241.75;;;17.95;74.98
50349;BME280;36250;48.740;22.174;2023-08-08T00:48:19;100241.75;;;17.95;75.02
50349;BME280;36250;48.740;22.174;2023-08-08T00:50:45;100241.97;;;17.98;75.02
50349;BME280;36250;48.740;22.174;2023-08-08T00:53:10;100238.31;;;18.03;74.85
50349;BME280;36250;48.740;22.174;2023-08-08T00:55:36;100247.16;;;18.00;74.57
50349;BME280;36250;48.740;22.174;2023-08-08T00:58:01;100241.13;;;17.98;74.74
50349;BME280;36250;48.740;22.174;2023-08-08T01:00:27;100246.78;;;17.88;74.65
50349;BME280;36250;48.740;22.174;2023-08-08T01:02:52;100257.81;;;17.88;74.79
50349;BME280;36250;48.740;22.174;2023-08-08T01:05:17;100252.91;;;17.85;74.94
50349;BME280;36250;48.740;22.174;2023-08-08T01:10:08;100260.03;;;17.86;75.01
50349;BME280;36250;48.740;22.174;2023-08-08T01:12:35;100257.59;;;17.84;75.16
50349;BME280;36250;48.740;22.174;2023-08-08T01:15:04;100260.03;;;17.86;75.20
50349;BME280;36250;48.740;22.174;2023-08-08T01:17:31;100264.97;;;17.89;74.87
50349;BME280;36250;48.740;22.174;2023-08-08T01:19:57;100261.44;;;17.83;74.58
50349;BME280;36250;48.740;22.174;2023-08-08T01:22:27;100262.28;;;17.84;74.75
50349;BME280;36250;48.740;22.174;2023-08-08T01:24:54;100252.91;;;17.85;75.09
50349;BME280;36250;48.740;22.174;2023-08-08T01:27:21;100252.91;;;17.85;74.92
50349;BME280;36250;48.740;22.174;2023-08-08T01:29:46;100258.63;;;17.88;75.07
50349;BME280;36250;48.740;22.174;2023-08-08T01:32:11;100258.34;;;17.90;74.78
50349;BME280;36250;48.740;22.174;2023-08-08T01:34:37;100258.03;;;17.91;74.65
50349;BME280;36250;48.740;22.174;2023-08-08T01:37:13;100268.22;;;17.91;74.75
50349;BME280;36250;48.740;22.174;2023-08-08T01:39:42;100274.56;;;17.91;74.95
50349;BME280;36250;48.740;22.174;2023-08-08T01:42:08;100276.81;;;17.89;74.90
50349;BME280;36250;48.740;22.174;2023-08-08T01:44:35;100271.50;;;17.93;74.90
50349;BME280;36250;48.740;22.174;2023-08-08T01:47:01;100282.06;;;17.86;74.94
50349;BME280;36250;48.740;22.174;2023-08-08T01:49:26;100282.31;;;17.89;74.81
50349;BME280;36250;48.740;22.174;2023-08-08T01:51:51;100279.25;;;17.91;74.72
50349;BME280;36250;48.740;22.174;2023-08-08T01:54:17;100272.41;;;17.88;74.82
50349;BME280;36250;48.740;22.174;2023-08-08T01:56:42;100276.13;;;17.79;74.93
50349;BME280;36250;48.740;22.174;2023-08-08T01:59:08;100285.25;;;17.74;74.99
50349;BME280;36250;48.740;22.174;2023-08-08T02:01:33;100281.53;;;17.65;75.19
50349;BME280;36250;48.740;22.174;2023-08-08T02:03:58;100280.00;;;17.54;75.24
50349;BME280;36250;48.740;22.174;2023-08-08T02:06:23;100283.16;;;17.42;75.46
50349;BME280;36250;48.740;22.174;2023-08-08T02:08:49;100293.69;;;17.35;75.65
50349;BME280;36250;48.740;22.174;2023-08-08T02:11:14;100281.03;;;17.34;75.57
50349;BME280;36250;48.740;22.174;2023-08-08T02:13:39;100282.16;;;17.33;75.75
50349;BME280;36250;48.740;22.174;2023-08-08T02:16:04;100285.50;;;17.30;75.88
50349;BME280;36250;48.740;22.174;2023-08-08T02:18:29;100285.97;;;17.37;75.91
50349;BME280;36250;48.740;22.174;2023-08-08T02:20:55;100297.44;;;17.44;75.69
50349;BME280;36250;48.740;22.174;2023-08-08T02:23:20;100298.25;;;17.45;75.60
50349;BME280;36250;48.740;22.174;2023-08-08T02:25:45;100300.72;;;17.46;75.61
50349;BME280;36250;48.740;22.174;2023-08-08T02:28:10;100304.59;;;17.45;75.35
50349;BME280;36250;48.740;22.174;2023-08-08T02:30:36;100303.47;;;17.46;75.23
50349;BME280;36250;48.740;22.174;2023-08-08T02:33:01;100302.13;;;17.44;75.65
50349;BME280;36250;48.740;22.174;2023-08-08T02:35:26;100311.66;;;17.51;75.36
50349;BME280;36250;48.740;22.174;2023-08-08T02:37:51;100306.72;;;17.53;75.46
50349;BME280;36250;48.740;22.174;2023-08-08T02:40:17;100305.03;;;17.57;75.42
50349;BME280;36250;48.740;22.174;2023-08-08T02:42:42;100307.53;;;17.54;75.05
50349;BME280;36250;48.740;22.174;2023-08-08T02:45:07;100305.91;;;17.53;75.02
50349;BME280;36250;48.740;22.174;2023-08-08T02:47:33;100309.47;;;17.53;74.96
50349;BME280;36250;48.740;22.174;2023-08-08T02:49:58;100314.41;;;17.51;74.64
50349;BME280;36250;48.740;22.174;2023-08-08T02:52:23;100318.28;;;17.50;74.57
50349;BME280;36250;48.740;22.174;2023-08-08T02:54:48;100324.91;;;17.49;74.77
50349;BME280;36250;48.740;22.174;2023-08-08T02:57:15;100315.59;;;17.45;74.82
50349;BME280;36250;48.740;22.174;2023-08-08T02:59:40;100327.19;;;17.42;74.92
50349;BME280;36250;48.740;22.174;2023-08-08T03:02:05;100332.75;;;17.37;75.11
50349;BME280;36250;48.740;22.174;2023-08-08T03:04:30;100336.38;;;17.33;75.43
50349;BME280;36250;48.740;22.174;2023-08-08T03:06:56;100331.09;;;17.36;74.95
50349;BME280;36250;48.740;22.174;2023-08-08T03:09:21;100335.97;;;17.44;75.21
50349;BME280;36250;48.740;22.174;2023-08-08T03:11:47;100340.13;;;17.42;75.16
50349;BME280;36250;48.740;22.174;2023-08-08T03:14:12;100338.19;;;17.42;74.80
50349;BME280;36250;48.740;22.174;2023-08-08T03:16:37;100344.53;;;17.43;75.25
50349;BME280;36250;48.740;22.174;2023-08-08T03:19:03;100347.84;;;17.40;75.34
50349;BME280;36250;48.740;22.174;2023-08-08T03:21:28;100354.69;;;17.42;75.36
50349;BME280;36250;48.740;22.174;2023-08-08T03:23:53;100354.69;;;17.42;75.40
50349;BME280;36250;48.740;22.174;2023-08-08T03:26:18;100354.63;;;17.52;75.23
50349;BME280;36250;48.740;22.174;2023-08-08T03:28:44;100354.84;;;17.56;75.43
50349;BME280;36250;48.740;22.174;2023-08-08T03:31:09;100358.38;;;17.61;75.25
50349;BME280;36250;48.740;22.174;2023-08-08T03:33:34;100357.78;;;17.64;74.78
50349;BME280;36250;48.740;22.174;2023-08-08T03:35:59;100356.91;;;17.69;75.20
50349;BME280;36250;48.740;22.174;2023-08-08T03:38:25;100371.03;;;17.62;74.41
50349;BME280;36250;48.740;22.174;2023-08-08T03:40:50;100382.53;;;17.41;74.74
50349;BME280;36250;48.740;22.174;2023-08-08T03:43:15;100378.00;;;17.26;75.43
50349;BME280;36250;48.740;22.174;2023-08-08T03:45:41;100386.53;;;17.25;75.61
50349;BME280;36250;48.740;22.174;2023-08-08T03:48:06;100380.13;;;17.29;75.40
50349;BME280;36250;48.740;22.174;2023-08-08T03:50:31;100383.63;;;17.40;75.17
50349;BME280;36250;48.740;22.174;2023-08-08T03:52:56;100387.22;;;17.40;75.35
50349;BME280;36250;48.740;22.174;2023-08-08T03:55:22;100392.72;;;17.40;75.36
50349;BME280;36250;48.740;22.174;2023-08-08T03:57:47;100399.84;;;17.41;75.40
50349;BME280;36250;48.740;22.174;2023-08-08T04:00:12;100396.34;;;17.36;75.13
50349;BME280;36250;48.740;22.174;2023-08-08T04:02:37;100404.84;;;17.34;75.43
50349;BME280;36250;48.740;22.174;2023-08-08T04:05:03;100404.19;;;17.52;75.17
50349;BME280;36250;48.740;22.174;2023-08-08T04:07:29;100399.03;;;17.69;74.87
50349;BME280;36250;48.740;22.174;2023-08-08T04:09:54;100395.66;;;17.78;74.72
50349;BME280;36250;48.740;22.174;2023-08-08T04:12:19;100389.78;;;17.84;73.99
50349;BME280;36250;48.740;22.174;2023-08-08T04:14:44;100390.00;;;17.88;74.30
50349;BME280;36250;48.740;22.174;2023-08-08T04:17:10;100383.91;;;17.91;73.75
50349;BME280;36250;48.740;22.174;2023-08-08T04:19:35;100388.78;;;17.99;74.04
50349;BME280;36250;48.740;22.174;2023-08-08T04:22:00;100393.34;;;18.08;73.76
50349;BME280;36250;48.740;22.174;2023-08-08T04:24:25;100404.88;;;18.10;73.57
50349;BME280;36250;48.740;22.174;2023-08-08T04:26:50;100413.91;;;18.16;73.30
50349;BME280;36250;48.740;22.174;2023-08-08T04:29:16;100413.06;;;18.15;72.87
50349;BME280;36250;48.740;22.174;2023-08-08T04:31:41;100411.09;;;18.21;72.85
50349;BME280;36250;48.740;22.174;2023-08-08T04:34:06;100412.94;;;18.25;72.63
50349;BME280;36250;48.740;22.174;2023-08-08T04:36:31;100418.09;;;18.32;72.64
50349;BME280;36250;48.740;22.174;2023-08-08T04:38:57;100422.09;;;18.21;71.60
50349;BME280;36250;48.740;22.174;2023-08-08T04:41:22;100437.22;;;18.00;72.34
50349;BME280;36250;48.740;22.174;2023-08-08T04:43:47;100447.25;;;17.91;72.83
50349;BME280;36250;48.740;22.174;2023-08-08T04:46:12;100448.75;;;17.78;73.11
50349;BME280;36250;48.740;22.174;2023-08-08T04:48:38;100451.88;;;17.71;73.19
50349;BME280;36250;48.740;22.174;2023-08-08T04:51:06;100461.34;;;17.60;73.45
50349;BME280;36250;48.740;22.174;2023-08-08T04:53:32;100463.34;;;17.50;73.88
50349;BME280;36250;48.740;22.174;2023-08-08T04:55:57;100462.34;;;17.41;74.20
50349;BME280;36250;48.740;22.174;2023-08-08T04:58:22;100474.97;;;17.42;74.21
50349;BME280;36250;48.740;22.174;2023-08-08T05:00:47;100470.81;;;17.44;74.46
50349;BME280;36250;48.740;22.174;2023-08-08T05:03:13;100474.06;;;17.51;74.48
50349;BME280;36250;48.740;22.174;2023-08-08T05:05:38;100479.50;;;17.61;74.20
50349;BME280;36250;48.740;22.174;2023-08-08T05:08:03;100472.50;;;17.74;73.98
50349;BME280;36250;48.740;22.174;2023-08-08T05:10:28;100483.50;;;17.74;73.88
50349;BME280;36250;48.740;22.174;2023-08-08T05:12:56;100490.31;;;17.53;74.15
50349;BME280;36250;48.740;22.174;2023-08-08T05:15:21;100498.63;;;17.43;74.52
50349;BME280;36250;48.740;22.174;2023-08-08T05:17:46;100493.38;;;17.46;75.58
50349;BME280;36250;48.740;22.174;2023-08-08T05:20:11;100494.38;;;17.60;75.32
50349;BME280;36250;48.740;22.174;2023-08-08T05:22:37;100502.25;;;17.72;74.34
50349;BME280;36250;48.740;22.174;2023-08-08T05:25:02;100508.03;;;17.70;74.45
50349;BME280;36250;48.740;22.174;2023-08-08T05:27:27;100504.09;;;17.82;74.61
50349;BME280;36250;48.740;22.174;2023-08-08T05:29:53;100513.13;;;17.87;74.14
50349;BME280;36250;48.740;22.174;2023-08-08T05:32:18;100511.16;;;17.88;73.95
50349;BME280;36250;48.740;22.174;2023-08-08T05:34:43;100511.69;;;17.95;74.01
50349;BME280;36250;48.740;22.174;2023-08-08T05:37:10;100505.88;;;17.96;73.56
50349;BME280;36250;48.740;22.174;2023-08-08T05:39:35;100511.22;;;18.11;73.55
50349;BME280;36250;48.740;22.174;2023-08-08T05:42:00;100510.03;;;18.17;73.88
50349;BME280;36250;48.740;22.174;2023-08-08T05:44:26;100512.41;;;18.29;72.95
50349;BME280;36250;48.740;22.174;2023-08-08T05:46:51;100512.84;;;18.12;73.05
50349;BME280;36250;48.740;22.174;2023-08-08T05:49:17;100525.22;;;18.15;72.27
50349;BME280;36250;48.740;22.174;2023-08-08T05:51:42;100523.47;;;18.24;72.89
50349;BME280;36250;48.740;22.174;2023-08-08T05:54:07;100522.00;;;18.08;73.06
50349;BME280;36250;48.740;22.174;2023-08-08T05:56:36;100529.59;;;17.92;73.75
50349;BME280;36250;48.740;22.174;2023-08-08T05:59:04;100529.25;;;17.99;73.70
50349;BME280;36250;48.740;22.174;2023-08-08T06:01:29;100526.34;;;18.14;73.90
50349;BME280;36250;48.740;22.174;2023-08-08T06:03:54;100521.88;;;18.18;73.17
50349;BME280;36250;48.740;22.174;2023-08-08T06:06:20;100531.25;;;18.17;72.79
50349;BME280;36250;48.740;22.174;2023-08-08T06:08:45;100530.19;;;18.13;73.19
50349;BME280;36250;48.740;22.174;2023-08-08T06:11:10;100526.91;;;18.34;73.29
50349;BME280;36250;48.740;22.174;2023-08-08T06:13:36;100522.13;;;18.69;72.85
50349;BME280;36250;48.740;22.174;2023-08-08T06:16:01;100529.50;;;18.73;71.46
50349;BME280;36250;48.740;22.174;2023-08-08T06:18:31;100539.72;;;18.73;71.09
50349;BME280;36250;48.740;22.174;2023-08-08T06:20:56;100543.00;;;18.93;71.57
50349;BME280;36250;48.740;22.174;2023-08-08T06:23:21;100536.41;;;18.94;71.11
50349;BME280;36250;48.740;22.174;2023-08-08T06:25:47;100550.72;;;18.96;69.65
50349;BME280;36250;48.740;22.174;2023-08-08T06:28:12;100549.13;;;18.90;69.94
50349;BME280;36250;48.740;22.174;2023-08-08T06:30:37;100550.91;;;19.00;69.27
50349;BME280;36250;48.740;22.174;2023-08-08T06:33:02;100556.59;;;19.09;69.30
50349;BME280;36250;48.740;22.174;2023-08-08T06:35:28;100556.16;;;19.20;69.34
50349;BME280;36250;48.740;22.174;2023-08-08T06:37:53;100558.78;;;19.12;68.68
50349;BME280;36250;48.740;22.174;2023-08-08T06:40:18;100564.44;;;19.01;69.42
50349;BME280;36250;48.740;22.174;2023-08-08T06:42:43;100557.44;;;19.09;68.99
50349;BME280;36250;48.740;22.174;2023-08-08T06:45:09;100565.16;;;18.88;69.46
50349;BME280;36250;48.740;22.174;2023-08-08T06:47:34;100563.06;;;18.80;70.38
50349;BME280;36250;48.740;22.174;2023-08-08T06:50:00;100566.69;;;18.99;70.05
50349;BME280;36250;48.740;22.174;2023-08-08T06:52:25;100564.88;;;19.09;69.39
50349;BME280;36250;48.740;22.174;2023-08-08T06:54:50;100556.75;;;19.17;69.29
50349;BME280;36250;48.740;22.174;2023-08-08T06:57:15;100564.66;;;19.24;68.40
50349;BME280;36250;48.740;22.174;2023-08-08T06:59:40;100559.06;;;19.29;68.30
50349;BME280;36250;48.740;22.174;2023-08-08T07:02:06;100558.47;;;19.13;67.55
50349;BME280;36250;48.740;22.174;2023-08-08T07:04:31;100560.09;;;18.95;68.79
50349;BME280;36250;48.740;22.174;2023-08-08T07:06:57;100561.38;;;19.03;69.52
50349;BME280;36250;48.740;22.174;2023-08-08T07:09:22;100559.06;;;19.29;69.17
50349;BME280;36250;48.740;22.174;2023-08-08T07:11:47;100549.72;;;19.25;68.94
50349;BME280;36250;48.740;22.174;2023-08-08T07:14:12;100555.25;;;19.25;68.97
50349;BME280;36250;48.740;22.174;2023-08-08T07:16:38;100556.72;;;19.41;68.92
50349;BME280;36250;48.740;22.174;2023-08-08T07:19:03;100561.53;;;19.49;69.02
50349;BME280;36250;48.740;22.174;2023-08-08T07:21:28;100559.75;;;19.58;68.59
50349;BME280;36250;48.740;22.174;2023-08-08T07:23:54;100563.97;;;19.69;67.93
50349;BME280;36250;48.740;22.174;2023-08-08T07:26:19;100573.75;;;19.61;67.87
50349;BME280;36250;48.740;22.174;2023-08-08T07:28:44;100571.88;;;19.76;68.42
50349;BME280;36250;48.740;22.174;2023-08-08T07:31:10;100568.22;;;19.80;68.01
50349;BME280;36250;48.740;22.174;2023-08-08T07:33:35;100572.13;;;19.60;67.90
50349;BME280;36250;48.740;22.174;2023-08-08T07:36:00;100575.97;;;19.46;68.38
50349;BME280;36250;48.740;22.174;2023-08-08T07:38:25;100579.53;;;19.46;68.27
50349;BME280;36250;48.740;22.174;2023-08-08T07:40:51;100580.13;;;19.43;68.29
50349;BME280;36250;48.740;22.174;2023-08-08T07:43:16;100581.31;;;19.56;68.42
50349;BME280;36250;48.740;22.174;2023-08-08T07:45:41;100585.94;;;19.60;67.40
50349;BME280;36250;48.740;22.174;2023-08-08T07:48:07;100584.44;;;19.49;67.54
50349;BME280;36250;48.740;22.174;2023-08-08T07:50:32;100580.25;;;19.33;67.66
50349;BME280;36250;48.740;22.174;2023-08-08T07:52:58;100583.53;;;19.17;67.87
50349;BME280;36250;48.740;22.174;2023-08-08T07:55:23;100587.34;;;19.02;68.36
50349;BME280;36250;48.740;22.174;2023-08-08T07:57:48;100594.03;;;18.96;69.11
50349;BME280;36250;48.740;22.174;2023-08-08T08:00:14;100590.38;;;19.00;69.39
50349;BME280;36250;48.740;22.174;2023-08-08T08:02:39;100592.78;;;19.07;68.83
50349;BME280;36250;48.740;22.174;2023-08-08T08:05:05;100591.22;;;19.20;69.13
50349;BME280;36250;48.740;22.174;2023-08-08T08:07:32;100585.78;;;19.33;69.38
50349;BME280;36250;48.740;22.174;2023-08-08T08:09:58;100591.88;;;19.30;69.75
50349;BME280;36250;48.740;22.174;2023-08-08T08:12:24;100579.88;;;19.21;70.07
50349;BME280;36250;48.740;22.174;2023-08-08T08:14:49;100590.53;;;19.28;69.96
50349;BME280;36250;48.740;22.174;2023-08-08T08:17:14;100586.19;;;19.45;70.58
50349;BME280;36250;48.740;22.174;2023-08-08T08:19:39;100592.38;;;19.56;70.45
50349;BME280;36250;48.740;22.174;2023-08-08T08:22:04;100588.88;;;19.50;70.34
50349;BME280;36250;48.740;22.174;2023-08-08T08:24:30;100597.88;;;19.37;70.85
50349;BME280;36250;48.740;22.174;2023-08-08T08:26:55;100600.16;;;19.12;71.03
50349;BME280;36250;48.740;22.174;2023-08-08T08:29:20;100610.28;;;18.97;71.85
50349;BME280;36250;48.740;22.174;2023-08-08T08:31:45;100606.28;;;19.09;71.74
50349;BME280;36250;48.740;22.174;2023-08-08T08:34:10;100602.31;;;18.96;71.66
50349;BME280;36250;48.740;22.174;2023-08-08T08:36:36;100602.75;;;19.03;71.89
50349;BME280;36250;48.740;22.174;2023-08-08T08:39:01;100609.78;;;19.14;71.51
50349;BME280;36250;48.740;22.174;2023-08-08T08:41:27;100605.06;;;19.15;72.03
50349;BME280;36250;48.740;22.174;2023-08-08T08:43:53;100605.00;;;19.20;72.26
50349;BME280;36250;48.740;22.174;2023-08-08T08:46:20;100602.78;;;19.22;71.82
50349;BME280;36250;48.740;22.174;2023-08-08T08:48:45;100592.94;;;19.16;71.67
50349;BME280;36250;48.740;22.174;2023-08-08T08:51:12;100604.88;;;19.11;71.95
50349;BME280;36250;48.740;22.174;2023-08-08T08:53:37;100603.44;;;19.14;71.62
50349;BME280;36250;48.740;22.174;2023-08-08T08:56:04;100602.78;;;19.22;70.82
50349;BME280;36250;48.740;22.174;2023-08-08T08:58:29;100603.25;;;19.29;72.00
50349;BME280;36250;48.740;22.174;2023-08-08T09:00:55;100606.59;;;19.26;70.77
50349;BME280;36250;48.740;22.174;2023-08-08T09:03:21;100611.50;;;19.10;70.89
50349;BME280;36250;48.740;22.174;2023-08-08T09:05:47;100612.19;;;19.21;71.19
50349;BME280;36250;48.740;22.174;2023-08-08T09:08:13;100606.72;;;19.34;70.93
50349;BME280;36250;48.740;22.174;2023-08-08T09:10:38;100599.91;;;19.50;70.86
50349;BME280;36250;48.740;22.174;2023-08-08T09:13:03;100607.97;;;19.65;70.00
50349;BME280;36250;48.740;22.174;2023-08-08T09:15:30;100606.63;;;19.63;69.58
50349;BME280;36250;48.740;22.174;2023-08-08T09:17:55;100610.69;;;19.84;69.43
50349;BME280;36250;48.740;22.174;2023-08-08T09:20:20;100607.25;;;19.92;69.60
50349;BME280;36250;48.740;22.174;2023-08-08T09:22:45;100617.56;;;19.87;67.18
50349;BME280;36250;48.740;22.174;2023-08-08T09:25:11;100613.56;;;19.42;65.55
50349;BME280;36250;48.740;22.174;2023-08-08T09:27:37;100615.97;;;19.06;66.28
50349;BME280;36250;48.740;22.174;2023-08-08T09:30:02;100611.00;;;18.84;66.62
50349;BME280;36250;48.740;22.174;2023-08-08T09:32:28;100615.03;;;18.68;67.72
50349;BME280;36250;48.740;22.174;2023-08-08T09:34:55;100611.81;;;18.61;68.20
50349;BME280;36250;48.740;22.174;2023-08-08T09:37:20;100611.03;;;18.61;68.99
50349;BME280;36250;48.740;22.174;2023-08-08T09:39:45;100619.34;;;18.56;69.15
50349;BME280;36250;48.740;22.174;2023-08-08T09:42:11;100616.28;;;18.57;68.78
50349;BME280;36250;48.740;22.174;2023-08-08T09:44:36;100626.84;;;18.50;69.13
50349;BME280;36250;48.740;22.174;2023-08-08T09:47:01;100627.59;;;18.27;69.29
50349;BME280;36250;48.740;22.174;2023-08-08T09:49:27;100628.50;;;18.17;70.09
50349;BME280;36250;48.740;22.174;2023-08-08T09:51:53;100627.41;;;18.18;69.74
50349;BME280;36250;48.740;22.174;2023-08-08T09:54:19;100627.16;;;18.15;69.82
50349;BME280;36250;48.740;22.174;2023-08-08T09:56:45;100620.72;;;17.96;68.75
50349;BME280;36250;48.740;22.174;2023-08-08T09:59:11;100626.06;;;17.87;68.53
50349;BME280;36250;48.740;22.174;2023-08-08T10:01:37;100625.19;;;17.92;69.05
50349;BME280;36250;48.740;22.174;2023-08-08T10:04:04;100623.13;;;18.02;69.78
50349;BME280;36250;48.740;22.174;2023-08-08T10:06:31;100625.59;;;18.09;69.16
50349;BME280;36250;48.740;22.174;2023-08-08T10:08:57;100623.00;;;18.17;69.94
50349;BME280;36250;48.740;22.174;2023-08-08T10:11:22;100615.56;;;18.18;70.23
50349;BME280;36250;48.740;22.174;2023-08-08T10:13:48;100620.41;;;18.31;69.89
50349;BME280;36250;48.740;22.174;2023-08-08T10:16:15;100624.66;;;18.47;69.83
50349;BME280;36250;48.740;22.174;2023-08-08T10:18:40;100618.69;;;18.64;69.65
50349;BME280;36250;48.740;22.174;2023-08-08T10:21:06;100610.94;;;18.89;68.15
50349;BME280;36250;48.740;22.174;2023-08-08T10:23:35;100613.91;;;19.17;66.18
50349;BME280;36250;48.740;22.174;2023-08-08T10:26:01;100605.63;;;19.54;66.15
50349;BME280;36250;48.740;22.174;2023-08-08T10:28:27;100598.22;;;19.87;65.06
50349;BME280;36250;48.740;22.174;2023-08-08T10:30:56;100595.06;;;20.25;64.09
50349;BME280;36250;48.740;22.174;2023-08-08T10:33:25;100602.09;;;20.64;63.00
50349;BME280;36250;48.740;22.174;2023-08-08T10:36:01;100599.19;;;20.82;61.08
50349;BME280;36250;48.740;22.174;2023-08-08T10:38:38;100599.38;;;21.13;60.99
50349;BME280;36250;48.740;22.174;2023-08-08T10:41:04;100598.03;;;21.24;59.80
50349;BME280;36250;48.740;22.174;2023-08-08T10:43:29;100593.22;;;21.16;59.81
50349;BME280;36250;48.740;22.174;2023-08-08T10:45:58;100597.56;;;21.09;59.11
50349;BME280;36250;48.740;22.174;2023-08-08T10:48:25;100590.13;;;21.31;59.64
50349;BME280;36250;48.740;22.174;2023-08-08T10:50:51;100582.09;;;21.43;58.36
50349;BME280;36250;48.740;22.174;2023-08-08T10:53:19;100585.00;;;21.60;57.20
50349;BME280;36250;48.740;22.174;2023-08-08T10:55:47;100579.34;;;21.66;57.44
50349;BME280;36250;48.740;22.174;2023-08-08T10:58:21;100576.06;;;21.64;56.18
50349;BME280;36250;48.740;22.174;2023-08-08T11:00:46;100584.53;;;21.45;53.71
50349;BME280;36250;48.740;22.174;2023-08-08T11:03:12;100579.63;;;21.06;55.83
50349;BME280;36250;48.740;22.174;2023-08-08T11:05:38;100585.44;;;21.18;55.72
50349;BME280;36250;48.740;22.174;2023-08-08T11:08:04;100572.09;;;21.20;55.15
50349;BME280;36250;48.740;22.174;2023-08-08T11:10:29;100573.63;;;21.26;55.81
50349;BME280;36250;48.740;22.174;2023-08-08T11:13:00;100573.50;;;21.31;54.28
50349;BME280;36250;48.740;22.174;2023-08-08T11:15:25;100566.47;;;21.47;54.23
50349;BME280;36250;48.740;22.174;2023-08-08T11:17:52;100578.03;;;21.49;53.99
50349;BME280;36250;48.740;22.174;2023-08-08T11:20:18;100571.34;;;21.28;53.73
50349;BME280;36250;48.740;22.174;2023-08-08T11:22:43;100573.03;;;21.51;55.29
50349;BME280;36250;48.740;22.174;2023-08-08T11:25:08;100575.25;;;21.63;53.75
50349;BME280;36250;48.740;22.174;2023-08-08T11:27:33;100565.41;;;21.79;53.31
50349;BME280;36250;48.740;22.174;2023-08-08T11:29:59;100558.06;;;21.97;53.48
50349;BME280;36250;48.740;22.174;2023-08-08T11:32:25;100561.50;;;22.33;53.82
50349;BME280;36250;48.740;22.174;2023-08-08T11:34:51;100553.31;;;22.59;52.75
50349;BME280;36250;48.740;22.174;2023-08-08T11:37:16;100547.69;;;22.50;52.67
50349;BME280;36250;48.740;22.174;2023-08-08T11:39:42;100551.31;;;22.51;52.52
50349;BME280;36250;48.740;22.174;2023-08-08T11:42:07;100550.28;;;22.77;51.72
50349;BME280;36250;48.740;22.174;2023-08-08T11:44:32;100555.66;;;22.74;52.48
50349;BME280;36250;48.740;22.174;2023-08-08T11:47:01;100562.38;;;22.99;51.84
50349;BME280;36250;48.740;22.174;2023-08-08T11:49:26;100544.66;;;23.25;51.80
50349;BME280;36250;48.740;22.174;2023-08-08T11:51:53;100544.31;;;23.27;51.36
50349;BME280;36250;48.740;22.174;2023-08-08T11:54:20;100548.78;;;23.45;51.25
50349;BME280;36250;48.740;22.174;2023-08-08T11:56:45;100546.28;;;23.61;50.69
50349;BME280;36250;48.740;22.174;2023-08-08T11:59:11;100546.94;;;23.58;51.31
50349;BME280;36250;48.740;22.174;2023-08-08T12:01:37;100544.44;;;23.82;51.06
50349;BME280;36250;48.740;22.174;2023-08-08T12:04:06;100543.41;;;24.21;51.07
50349;BME280;36250;48.740;22.174;2023-08-08T12:06:31;100531.03;;;24.47;51.07
50349;BME280;36250;48.740;22.174;2023-08-08T12:08:57;100533.00;;;24.76;50.82
50349;BME280;36250;48.740;22.174;2023-08-08T12:11:22;100533.47;;;24.87;49.75
50349;BME280;36250;48.740;22.174;2023-08-08T12:13:47;100537.00;;;24.58;50.54
50349;BME280;36250;48.740;22.174;2023-08-08T12:16:13;100529.00;;;24.56;51.48
50349;BME280;36250;48.740;22.174;2023-08-08T12:18:39;100536.94;;;24.75;50.57
50349;BME280;36250;48.740;22.174;2023-08-08T12:21:05;100528.56;;;24.84;51.02
50349;BME280;36250;48.740;22.174;2023-08-08T12:23:31;100534.59;;;24.86;51.25
50349;BME280;36250;48.740;22.174;2023-08-08T12:25:57;100519.13;;;24.97;49.37
50349;BME280;36250;48.740;22.174;2023-08-08T12:28:22;100516.56;;;25.12;50.00
50349;BME280;36250;48.740;22.174;2023-08-08T12:30:47;100514.44;;;25.51;50.21
50349;BME280;36250;48.740;22.174;2023-08-08T12:33:13;100507.97;;;25.59;49.08
50349;BME280;36250;48.740;22.174;2023-08-08T12:35:38;100497.91;;;25.66;48.74